Data for 08/18/2015

Time Sea-Level Adjusted Pressure Absolute Pressure Temperature Relative Humidity Dew Point   
(mb) (inHg) (mb) (inHg) (C) (F) (%) (C) (F)
00:05 1022 30.18 851 25.13 9.2 48.6 68 3.6 38.4
00:10 1022 30.18 851 25.13 9.2 48.6 67 3.5 38.2
00:15 1022 30.18 851 25.13 9.4 48.9 66 3.5 38.3
00:20 1022 30.18 851 25.13 9.5 49.1 66 3.6 38.4
00:25 1022 30.18 851 25.13 9.6 49.2 67 3.7 38.7
00:30 1022 30.18 851 25.13 9.6 49.2 67 3.7 38.6
00:35 1021 30.15 851 25.13 9.7 49.4 66 3.8 38.8
00:40 1021 30.15 851 25.13 9.8 49.6 66 3.7 38.7
00:45 1021 30.15 851 25.13 9.7 49.4 67 3.9 38.9
00:50 1021 30.15 850 25.1 9.6 49.2 67 3.8 38.8
00:55 1021 30.15 850 25.1 9.6 49.3 67 3.8 38.9
01:00 1021 30.15 850 25.1 9.5 49.2 67 3.7 38.7
01:05 1021 30.15 850 25.1 9.5 49 67 3.8 38.8
01:10 1021 30.15 850 25.1 9.3 48.7 68 3.7 38.6
01:15 1021 30.15 850 25.1 9.1 48.4 68 3.5 38.4
01:20 1021 30.15 850 25.1 8.8 47.9 67 3.2 37.7
01:25 1021 30.15 850 25.1 8.6 47.5 69 3.2 37.7
01:30 1021 30.15 850 25.1 8.5 47.4 67 2.8 37.1
01:35 1021 30.15 850 25.1 8.8 47.8 67 3 37.3
01:40 1021 30.15 850 25.1 8.9 47.9 65 2.7 36.8
01:45 1021 30.15 850 25.1 9.2 48.5 64 2.9 37.1
01:50 1021 30.15 850 25.1 9.2 48.5 65 2.9 37.3
01:55 1021 30.15 850 25.1 8.9 48.1 65 2.8 37.1
02:00 1021 30.15 850 25.1 8.9 48 67 3 37.4
02:05 1021 30.15 850 25.1 8.8 47.8 66 2.9 37.2
02:10 1021 30.15 850 25.1 8.8 47.8 66 2.8 37.1
02:15 1021 30.15 850 25.1 8.8 47.8 67 2.9 37.3
02:20 1021 30.15 850 25.1 8.7 47.6 67 2.9 37.1
02:25 1021 30.15 850 25.1 8.6 47.4 67 2.8 37
02:30 1021 30.15 850 25.1 8.5 47.3 67 2.8 37
02:35 1021 30.15 850 25.1 8.4 47.2 67 2.8 37
02:40 1021 30.15 850 25.1 8.2 46.8 67 2.5 36.5
02:45 1021 30.15 850 25.1 8 46.5 67 2.4 36.3
02:50 1021 30.15 850 25.1 8.3 46.9 67 2.6 36.7
02:55 1021 30.15 850 25.1 8.3 46.9 69 2.9 37.2
03:00 1021 30.15 850 25.1 8.1 46.6 70 2.9 37.3
03:05 1021 30.15 850 25.1 7.9 46.1 71 3 37.4
03:10 1021 30.15 850 25.1 7.9 46.2 72 3.1 37.7
03:15 1021 30.15 850 25.1 7.8 46.1 71 2.8 37.1
03:20 1021 30.15 850 25.1 7.7 45.8 70 2.5 36.5
03:25 1021 30.15 850 25.1 7.6 45.8 70 2.5 36.5
03:30 1021 30.15 850 25.1 7.8 46 70 2.6 36.7
03:35 1021 30.15 850 25.1 7.8 46.1 70 2.7 36.9
03:40 1021 30.15 850 25.1 7.8 46 71 2.8 37
03:45 1020 30.12 850 25.1 7.6 45.7 71 2.7 36.9
03:50 1020 30.12 850 25.1 7.6 45.6 70 2.5 36.6
03:55 1020 30.12 850 25.1 7.8 46 69 2.6 36.6
04:00 1020 30.12 850 25.1 7.8 46.1 68 2.4 36.3
04:05 1020 30.12 850 25.1 8 46.4 67 2.3 36.1
04:10 1020 30.12 850 25.1 8.3 46.9 66 2.4 36.4
04:15 1020 30.12 849 25.07 8.3 46.9 66 2.4 36.3
04:20 1020 30.12 849 25.07 8.2 46.8 65 2.2 35.9
04:25 1020 30.12 849 25.07 8.2 46.8 66 2.2 36
04:30 1020 30.12 849 25.07 7.9 46.3 66 2.1 35.7
04:35 1020 30.12 849 25.07 7.7 45.9 69 2.3 36.2
04:40 1020 30.12 849 25.07 7.1 44.7 70 1.9 35.4
04:45 1020 30.12 849 25.07 7 44.6 71 2.1 35.8
04:50 1020 30.12 849 25.07 6.5 43.8 73 2 35.6
04:55 1020 30.12 850 25.1 6.6 43.9 70 1.6 34.9
05:00 1020 30.12 850 25.1 7.1 44.8 69 1.7 35.1
05:05 1020 30.12 850 25.1 7.2 45 68 1.8 35.3
05:10 1021 30.15 850 25.1 7.4 45.4 68 2 35.6
05:15 1021 30.15 850 25.1 7.5 45.4 69 2.2 35.9
05:20 1021 30.15 850 25.1 7.5 45.5 69 2.2 35.9
05:25 1021 30.15 850 25.1 7.6 45.7 69 2.3 36.1
05:30 1021 30.15 850 25.1 7.5 45.5 69 2.3 36.1
05:35 1021 30.15 850 25.1 7.6 45.7 69 2.3 36.1
05:40 1021 30.15 850 25.1 7.5 45.4 70 2.5 36.4
05:45 1021 30.15 850 25.1 7.3 45.2 70 2.2 36
05:50 1021 30.15 850 25.1 7.5 45.4 69 2.1 35.8
05:55 1021 30.15 850 25.1 7.8 46 68 2.2 36
06:00 1021 30.15 850 25.1 7.9 46.2 69 2.6 36.6
06:05 1021 30.15 850 25.1 7.8 46 69 2.4 36.3
06:10 1021 30.15 850 25.1 7.8 46.1 70 2.7 36.9
06:15 1021 30.15 850 25.1 7.6 45.7 69 2.4 36.2
06:20 1021 30.15 850 25.1 7.8 46 68 2.3 36.2
06:25 1021 30.15 850 25.1 7.9 46.2 69 2.6 36.6
06:30 1021 30.15 850 25.1 8.1 46.5 66 2.1 35.8
06:35 1021 30.15 850 25.1 8.3 46.9 66 2.3 36.2
06:40 1021 30.15 850 25.1 8.5 47.3 66 2.6 36.6
06:45 1021 30.15 850 25.1 8.4 47.2 69 3 37.4
06:50 1021 30.15 850 25.1 8.3 47 69 2.9 37.3
06:55 1021 30.15 850 25.1 8.4 47 69 3 37.4
07:00 1021 30.15 850 25.1 8.6 47.5 69 3.3 37.9
07:05 1021 30.15 850 25.1 8.7 47.7 69 3.4 38.1
07:10 1021 30.15 850 25.1 8.8 47.8 69 3.4 38.1
07:15 1021 30.15 850 25.1 8.9 48 68 3.4 38.1
07:20 1021 30.15 850 25.1 9 48.2 68 3.5 38.3
07:25 1021 30.15 850 25.1 9.1 48.5 67 3.4 38.1
07:30 1021 30.15 850 25.1 9.3 48.7 67 3.6 38.5
07:35 1021 30.15 850 25.1 9.4 49 68 3.8 38.8
07:40 1021 30.15 850 25.1 9.7 49.4 66 3.7 38.6
07:45 1021 30.15 850 25.1 9.9 49.8 67 4 39.2
07:50 1021 30.15 850 25.1 10.1 50.1 65 3.8 38.9
07:55 1021 30.15 850 25.1 10.1 50.3 66 4 39.2
08:00 1021 30.15 850 25.1 10.2 50.3 65 4 39.2
08:05 1021 30.15 850 25.1 10.3 50.6 66 4.2 39.6
08:10 1021 30.15 850 25.1 10.4 50.8 66 4.3 39.7
08:15 1021 30.15 850 25.1 10.5 50.9 66 4.5 40.2
08:20 1021 30.15 850 25.1 10.6 51.1 65 4.4 39.9
08:25 1021 30.15 850 25.1 10.7 51.3 66 4.7 40.5
08:30 1021 30.15 850 25.1 10.8 51.5 66 4.7 40.5
08:35 1021 30.15 850 25.1 10.8 51.5 65 4.6 40.2
08:40 1021 30.15 850 25.1 11 51.7 63 4.2 39.6
08:45 1021 30.15 850 25.1 11.2 52.1 63 4.3 39.8
08:50 1021 30.15 850 25.1 11.4 52.5 58 3.4 38.1
08:55 1021 30.15 850 25.1 11.6 53 59 3.9 39.1
09:00 1021 30.15 850 25.1 11.8 53.3 57 3.6 38.5
09:05 1021 30.15 850 25.1 12.1 53.7 56 3.7 38.6
09:10 1021 30.15 850 25.1 12.3 54.2 54 3.2 37.8
09:15 1021 30.15 850 25.1 12.6 54.6 53 3.4 38.1
09:20 1021 30.15 850 25.1 12.7 54.9 54 3.6 38.5
09:25 1021 30.15 850 25.1 13 55.3 51 3.2 37.7
09:30 1021 30.15 850 25.1 13 55.5 52 3.4 38.2
09:35 1021 30.15 850 25.1 13.1 55.5 52 3.5 38.2
09:40 1021 30.15 851 25.13 13.2 55.8 52 3.7 38.6
09:45 1021 30.15 851 25.13 13.4 56.2 53 4.1 39.4
09:50 1021 30.15 851 25.13 13.3 56 54 4.3 39.8
09:55 1021 30.15 851 25.13 13.2 55.8 52 3.7 38.7
10:00 1022 30.18 851 25.13 13.1 55.6 51 3.3 38
10:05 1022 30.18 851 25.13 13 55.3 52 3.3 38
10:10 1022 30.18 851 25.13 12.9 55.1 53 3.6 38.4
10:15 1022 30.18 851 25.13 13 55.3 52 3.5 38.4
10:20 1022 30.18 851 25.13 13.2 55.7 53 3.8 38.8
10:25 1022 30.18 851 25.13 13.3 55.9 54 4.3 39.7
10:30 1022 30.18 851 25.13 13.3 55.9 54 4.3 39.7
10:35 1022 30.18 851 25.13 13.3 55.9 58 5.1 41.2
10:40 1022 30.18 851 25.13 13.1 55.5 60 5.5 41.8
10:45 1022 30.18 851 25.13 12.9 55.2 61 5.5 41.9
10:50 1022 30.18 851 25.13 12.7 54.9 62 5.6 42.1
10:55 1022 30.18 851 25.13 12.6 54.7 61 5.4 41.7
11:00 1022 30.18 851 25.13 12.5 54.5 62 5.4 41.8
11:05 1022 30.18 852 25.16 12.4 54.3 61 5.2 41.4
11:10 1022 30.18 852 25.16 12.2 54 64 5.7 42.2
11:15 1022 30.18 852 25.16 12.2 53.9 64 5.6 42.1
11:20 1023 30.21 852 25.16 12.1 53.9 64 5.5 42
11:25 1023 30.21 852 25.16 12.2 53.9 63 5.4 41.7
11:30 1023 30.21 852 25.16 12.2 54 63 5.3 41.6
11:35 1023 30.21 852 25.16 12.2 54 63 5.4 41.8
11:40 1023 30.21 852 25.16 12.2 53.9 62 5.2 41.3
11:45 1023 30.21 852 25.16 12.1 53.8 60 4.7 40.4
11:50 1023 30.21 852 25.16 11.9 53.5 63 5.1 41.1
11:55 1023 30.21 852 25.16 11.8 53.3 61 4.5 40.1
12:00 1023 30.21 852 25.16 11.6 52.9 61 4.4 39.9
12:05 1023 30.21 852 25.16 11.5 52.7 64 5 41
12:10 1023 30.21 852 25.16 11.4 52.6 63 4.7 40.5
12:15 1023 30.21 852 25.16 11.4 52.5 63 4.5 40.2
12:20 1023 30.21 852 25.16 11.4 52.4 63 4.7 40.4
12:25 1023 30.21 852 25.16 11.4 52.5 62 4.5 40.2
12:30 1023 30.21 852 25.16 11.4 52.5 65 5 41.1
12:35 1023 30.21 852 25.16 11.5 52.7 67 5.7 42.2
12:40 1023 30.21 852 25.16 11.6 52.8 65 5.2 41.3
12:45 1023 30.21 852 25.16 11.6 52.8 64 5.1 41.2
12:50 1023 30.21 852 25.16 11.7 53 66 5.6 42.1
12:55 1023 30.21 852 25.16 11.8 53.2 66 5.8 42.4
13:00 1023 30.21 852 25.16 11.9 53.5 67 6 42.9
13:05 1023 30.21 852 25.16 12.1 53.8 64 5.6 42.1
13:10 1023 30.21 852 25.16 12.3 54.2 61 5.2 41.3
13:15 1023 30.21 852 25.16 12.2 54 62 5.3 41.6
13:20 1023 30.21 852 25.16 12.3 54.1 62 5.3 41.6
13:25 1023 30.21 852 25.16 12.4 54.3 62 5.4 41.7
13:30 1023 30.21 852 25.16 12.7 54.9 60 5.1 41.2
13:35 1023 30.21 852 25.16 12.8 55.1 60 5.3 41.5
13:40 1023 30.21 852 25.16 12.9 55.1 59 5.1 41.2
13:45 1023 30.21 852 25.16 12.9 55.1 58 4.9 40.8
13:50 1023 30.21 852 25.16 13.1 55.7 56 4.7 40.4
13:55 1023 30.21 852 25.16 13.5 56.2 56 4.9 40.9
14:00 1023 30.21 852 25.16 13.7 56.7 56 5.2 41.3
14:05 1023 30.21 852 25.16 14.1 57.3 54 4.9 40.9
14:10 1023 30.21 852 25.16 14.1 57.3 55 5.2 41.4
14:15 1023 30.21 852 25.16 13.8 56.8 54 4.7 40.5
14:20 1023 30.21 852 25.16 14 57.2 54 4.9 40.8
14:25 1023 30.21 852 25.16 14.1 57.4 53 4.8 40.6
14:30 1023 30.21 852 25.16 14.9 58.7 49 4.3 39.8
14:35 1023 30.21 852 25.16 15.1 59.2 47 4 39.2
14:40 1023 30.21 852 25.16 16 60.7 44 3.7 38.6
14:45 1023 30.21 852 25.16 16.5 61.6 46 4.8 40.6
14:50 1023 30.21 852 25.16 16.7 62.1 44 4.5 40.1
14:55 1023 30.21 852 25.16 16.2 61.1 43 3.8 38.9
15:00 1023 30.21 852 25.16 16.2 61.2 45 4.2 39.6
15:05 1023 30.21 852 25.16 15.8 60.5 44 3.6 38.5
15:10 1023 30.21 852 25.16 15.9 60.6 45 4.1 39.3
15:15 1023 30.21 852 25.16 16.1 61 41 3.1 37.6
15:20 1023 30.21 852 25.16 16.8 62.3 43 4.3 39.7
15:25 1023 30.21 852 25.16 16.5 61.6 42 3.7 38.7
15:30 1023 30.21 852 25.16 16.3 61.3 45 4.3 39.7
15:35 1023 30.21 852 25.16 16.4 61.5 43 3.8 38.9
15:40 1023 30.21 852 25.16 16.9 62.5 42 3.9 39
15:45 1022 30.18 852 25.16 16.6 61.8 43 4 39.3
15:50 1022 30.18 852 25.16 17.5 63.4 41 4.2 39.6
15:55 1022 30.18 852 25.16 17.2 62.9 42 4.1 39.4
16:00 1022 30.18 852 25.16 16.8 62.2 41 3.6 38.6
16:05 1022 30.18 852 25.16 16.6 61.9 48 5.8 42.4
16:10 1022 30.18 852 25.16 15.6 60.1 51 5.5 42
16:15 1022 30.18 852 25.16 15 59 55 6 42.8
16:20 1022 30.18 852 25.16 14.5 58 53 5.2 41.4
16:25 1022 30.18 852 25.16 14.4 58 53 5 40.9
16:30 1022 30.18 852 25.16 14.8 58.7 51 4.9 40.9
16:35 1023 30.21 852 25.16 15.4 59.8 49 4.9 40.8
16:40 1022 30.18 852 25.16 16.2 61.2 45 4.4 39.9
16:45 1023 30.21 852 25.16 15.8 60.5 47 4.7 40.5
16:50 1023 30.21 852 25.16 15.8 60.4 46 4.4 39.8
16:55 1023 30.21 852 25.16 15.8 60.5 47 4.5 40.1
17:00 1022 30.18 852 25.16 16 60.7 46 4.6 40.3
17:05 1022 30.18 852 25.16 15.9 60.5 47 4.6 40.3
17:10 1022 30.18 852 25.16 16.1 61 46 4.5 40.1
17:15 1022 30.18 852 25.16 16 60.9 46 4.4 40
17:20 1022 30.18 852 25.16 16.1 60.9 45 4.2 39.5
17:25 1022 30.18 852 25.16 16.3 61.3 45 4.4 40
17:30 1022 30.18 852 25.16 16 60.9 50 5.7 42.2
17:35 1022 30.18 852 25.16 16.2 61.1 47 5.1 41.1
17:40 1022 30.18 852 25.16 16.5 61.7 43 4.1 39.4
17:45 1022 30.18 852 25.16 16.1 60.9 44 4 39.2
17:50 1022 30.18 852 25.16 16 60.7 44 3.8 38.9
17:55 1022 30.18 852 25.16 15.9 60.7 45 4.1 39.4
18:00 1022 30.18 852 25.16 15.9 60.5 46 4.2 39.6
18:05 1022 30.18 852 25.16 16 60.9 45 4.1 39.3
18:10 1022 30.18 852 25.16 16.2 61.2 44 4.1 39.4
18:15 1022 30.18 852 25.16 16.3 61.3 44 4 39.2
18:20 1022 30.18 852 25.16 16.2 61.2 44 4 39.1
18:25 1022 30.18 852 25.16 16.2 61.1 44 4.1 39.4
18:30 1022 30.18 852 25.16 16 60.8 50 5.8 42.5
18:35 1022 30.18 852 25.16 15.5 59.9 52 5.8 42.5
18:40 1023 30.21 852 25.16 15.1 59.2 52 5.3 41.5
18:45 1023 30.21 852 25.16 15 59 51 5.1 41.2
18:50 1023 30.21 852 25.16 14.9 58.8 51 5.1 41.1
18:55 1023 30.21 852 25.16 14.9 58.7 52 5.1 41.3
19:00 1023 30.21 852 25.16 14.7 58.5 54 5.5 41.9
19:05 1023 30.21 852 25.16 14.5 58.1 55 5.7 42.3
19:10 1023 30.21 852 25.16 14.3 57.7 57 6 42.8
19:15 1023 30.21 852 25.16 14.1 57.4 59 6.4 43.5
19:20 1023 30.21 852 25.16 13.8 56.9 61 6.6 43.8
19:25 1023 30.21 852 25.16 13.7 56.6 60 6.2 43.2
19:30 1023 30.21 852 25.16 13.6 56.4 61 6.4 43.4
19:35 1023 30.21 852 25.16 13.4 56.2 62 6.3 43.4
19:40 1023 30.21 852 25.16 13.3 56 62 6.4 43.5
19:45 1023 30.21 852 25.16 13.3 55.9 63 6.5 43.6
19:50 1023 30.21 852 25.16 13.1 55.6 65 6.6 44
19:55 1023 30.21 852 25.16 12.9 55.2 66 6.7 44.1
20:00 1023 30.21 852 25.16 12.7 54.8 67 6.8 44.3
20:05 1023 30.21 852 25.16 12.5 54.5 67 6.5 43.8
20:10 1023 30.21 852 25.16 12.6 54.6 65 6.3 43.3
20:15 1023 30.21 852 25.16 12.6 54.7 66 6.4 43.5
20:20 1023 30.21 852 25.16 12.5 54.5 65 6.2 43.2
20:25 1023 30.21 852 25.16 12.6 54.6 63 5.7 42.3
20:30 1023 30.21 852 25.16 12.7 54.8 63 5.9 42.6
20:35 1023 30.21 852 25.16 12.7 54.8 62 5.6 42
20:40 1023 30.21 852 25.16 12.6 54.8 62 5.5 41.9
20:45 1023 30.21 852 25.16 12.4 54.4 63 5.6 42.1
20:50 1023 30.21 852 25.16 12.3 54.1 63 5.5 41.9
20:55 1023 30.21 852 25.16 12.1 53.8 62 5.2 41.3
21:00 1023 30.21 852 25.16 12 53.6 63 5.1 41.2
21:05 1023 30.21 852 25.16 11.9 53.3 62 5 40.9
21:10 1023 30.21 852 25.16 11.7 53.1 63 4.9 40.8
21:15 1023 30.21 852 25.16 11.5 52.7 63 4.9 40.8
21:20 1023 30.21 852 25.16 11.2 52.2 64 4.8 40.6
21:25 1023 30.21 852 25.16 10.9 51.7 66 4.9 40.8
21:30 1023 30.21 852 25.16 10.8 51.4 66 4.7 40.5
21:35 1023 30.21 852 25.16 10.7 51.2 66 4.6 40.4
21:40 1023 30.21 852 25.16 10.6 51 66 4.5 40.1
21:45 1023 30.21 852 25.16 10.5 50.9 66 4.6 40.2
21:50 1023 30.21 852 25.16 10.4 50.7 67 4.6 40.3
21:55 1023 30.21 852 25.16 10.4 50.8 67 4.5 40.2
22:00 1023 30.21 852 25.16 10.5 50.8 64 4.1 39.3
22:05 1023 30.21 852 25.16 10.6 51.2 65 4.3 39.7
22:10 1023 30.21 852 25.16 10.4 50.8 65 4.3 39.7
22:15 1023 30.21 852 25.16 10.3 50.5 66 4.2 39.5
22:20 1023 30.21 852 25.16 10.2 50.3 65 4 39.2
22:25 1023 30.21 852 25.16 10.3 50.5 65 4.1 39.4
22:30 1023 30.21 852 25.16 10.2 50.4 66 4.3 39.7
22:35 1023 30.21 852 25.16 9.7 49.5 68 4.1 39.4
22:40 1023 30.21 852 25.16 9.5 49.1 68 4 39.2
22:45 1023 30.21 852 25.16 9.7 49.4 67 3.9 39.1
22:50 1023 30.21 852 25.16 9.6 49.3 68 4 39.2
22:55 1023 30.21 852 25.16 9.3 48.7 68 3.7 38.7
23:00 1023 30.21 852 25.16 9.2 48.5 68 3.7 38.6
23:05 1023 30.21 852 25.16 9.1 48.3 70 3.8 38.9
23:10 1023 30.21 852 25.16 9 48.2 69 3.7 38.6
23:15 1023 30.21 852 25.16 9 48.2 69 3.6 38.5
23:20 1023 30.21 852 25.16 9 48.2 69 3.7 38.7
23:25 1023 30.21 852 25.16 9 48.2 70 3.9 39.1
23:30 1023 30.21 852 25.16 9.7 49.4 68 4 39.3
23:35 1023 30.21 852 25.16 9.8 49.6 67 4.1 39.3
23:40 1023 30.21 852 25.16 9.6 49.2 68 4 39.2
23:45 1023 30.21 852 25.16 9.4 48.9 69 4 39.3
23:50 1023 30.21 852 25.16 9.4 48.9 70 4.1 39.5
23:55 1023 30.21 852 25.16 9.1 48.4 70 4 39.3
24:00 1023 30.21 852 25.16 9.1 48.4 70 4 39.2